Apache, Oklahoma
Current Conditions -  °F | °C
As of 6:58 PM on Thursday 27 Nov 2014 (Local Time) from KFSI Reporting Station
Clear Clear  
Wind Chill: 42°   Ceiling: Unl
Heat Index: 45°   Visibility: 10mi
Dew Point: 28°   Wind: 5mph
Humidity: 53%   Direction: 190°S
Pressure: 30.32"   Gusts: NA
Location:  34.89°N, 98.37°W
Report Text: KFSI 280058Z AUTO 19004KT 10SM CLR 07/M02 A3032 RMK AO2 SLP274 T00701021
Loading
Personal Weather Stations






























Interactive Weather Map New forecast layout! Learn more

10-Day Weather Forecast

Advertisements
Track Severe Weather on mobile